sensor_id;sensor_type;location;lat;lon;timestamp;temperature;humidity
17442;DHT22;8838;50.144;8.176;2023-07-24T00:00:32;19.80;99.90
17442;DHT22;8838;50.144;8.176;2023-07-24T00:03:00;19.70;99.90
17442;DHT22;8838;50.144;8.176;2023-07-24T00:05:29;19.70;99.90
17442;DHT22;8838;50.144;8.176;2023-07-24T00:07:56;19.70;99.90
17442;DHT22;8838;50.144;8.176;2023-07-24T00:10:22;19.70;99.90
17442;DHT22;8838;50.144;8.176;2023-07-24T00:12:49;19.70;99.90
17442;DHT22;8838;50.144;8.176;2023-07-24T00:15:16;19.80;99.90
17442;DHT22;8838;50.144;8.176;2023-07-24T00:17:46;19.70;99.90
17442;DHT22;8838;50.144;8.176;2023-07-24T00:20:13;19.70;99.90
17442;DHT22;8838;50.144;8.176;2023-07-24T00:22:41;19.70;99.90
17442;DHT22;8838;50.144;8.176;2023-07-24T00:25:08;19.70;99.90
17442;DHT22;8838;50.144;8.176;2023-07-24T00:27:35;19.70;99.90
17442;DHT22;8838;50.144;8.176;2023-07-24T00:30:02;19.70;99.90
17442;DHT22;8838;50.144;8.176;2023-07-24T00:32:29;19.70;99.90
17442;DHT22;8838;50.144;8.176;2023-07-24T00:34:55;19.80;99.90
17442;DHT22;8838;50.144;8.176;2023-07-24T00:37:23;19.70;99.90
17442;DHT22;8838;50.144;8.176;2023-07-24T00:39:52;19.60;99.90
17442;DHT22;8838;50.144;8.176;2023-07-24T00:42:18;19.60;99.90
17442;DHT22;8838;50.144;8.176;2023-07-24T00:44:45;19.60;99.90
17442;DHT22;8838;50.144;8.176;2023-07-24T00:47:12;19.50;99.90
17442;DHT22;8838;50.144;8.176;2023-07-24T00:49:39;19.50;99.90
17442;DHT22;8838;50.144;8.176;2023-07-24T00:52:07;19.50;99.90
17442;DHT22;8838;50.144;8.176;2023-07-24T00:54:34;19.50;99.90
17442;DHT22;8838;50.144;8.176;2023-07-24T00:57:03;19.40;99.90
17442;DHT22;8838;50.144;8.176;2023-07-24T00:59:31;19.40;99.90
17442;DHT22;8838;50.144;8.176;2023-07-24T01:01:58;19.30;99.90
17442;DHT22;8838;50.144;8.176;2023-07-24T01:04:25;19.30;99.90
17442;DHT22;8838;50.144;8.176;2023-07-24T01:06:52;19.20;99.90
17442;DHT22;8838;50.144;8.176;2023-07-24T01:09:19;19.30;99.90
17442;DHT22;8838;50.144;8.176;2023-07-24T01:11:47;19.20;99.90
17442;DHT22;8838;50.144;8.176;2023-07-24T01:14:23;19.20;99.90
17442;DHT22;8838;50.144;8.176;2023-07-24T01:16:55;19.20;99.90
17442;DHT22;8838;50.144;8.176;2023-07-24T01:19:33;19.20;99.90
17442;DHT22;8838;50.144;8.176;2023-07-24T01:22:10;19.20;99.90
17442;DHT22;8838;50.144;8.176;2023-07-24T01:24:52;19.20;99.90
17442;DHT22;8838;50.144;8.176;2023-07-24T01:27:25;19.20;99.90
17442;DHT22;8838;50.144;8.176;2023-07-24T01:29:52;19.10;99.90
17442;DHT22;8838;50.144;8.176;2023-07-24T01:32:19;19.10;99.90
17442;DHT22;8838;50.144;8.176;2023-07-24T01:34:46;19.10;99.90
17442;DHT22;8838;50.144;8.176;2023-07-24T01:37:14;19.10;99.90
17442;DHT22;8838;50.144;8.176;2023-07-24T01:39:42;19.10;99.90
17442;DHT22;8838;50.144;8.176;2023-07-24T01:42:10;19.10;99.90
17442;DHT22;8838;50.144;8.176;2023-07-24T01:44:38;19.10;99.90
17442;DHT22;8838;50.144;8.176;2023-07-24T01:47:05;19.10;99.90
17442;DHT22;8838;50.144;8.176;2023-07-24T01:49:32;19.10;99.90
17442;DHT22;8838;50.144;8.176;2023-07-24T01:51:59;19.20;99.90
17442;DHT22;8838;50.144;8.176;2023-07-24T01:54:26;19.20;99.90
17442;DHT22;8838;50.144;8.176;2023-07-24T01:56:53;19.20;99.90
17442;DHT22;8838;50.144;8.176;2023-07-24T01:59:19;19.20;99.90
17442;DHT22;8838;50.144;8.176;2023-07-24T02:01:47;19.20;99.90
17442;DHT22;8838;50.144;8.176;2023-07-24T02:04:14;19.20;99.90
17442;DHT22;8838;50.144;8.176;2023-07-24T02:06:43;19.30;99.90
17442;DHT22;8838;50.144;8.176;2023-07-24T02:09:10;19.40;99.90
17442;DHT22;8838;50.144;8.176;2023-07-24T02:11:37;19.40;99.90
17442;DHT22;8838;50.144;8.176;2023-07-24T02:14:04;19.30;99.90
17442;DHT22;8838;50.144;8.176;2023-07-24T02:16:31;19.30;99.90
17442;DHT22;8838;50.144;8.176;2023-07-24T02:18:59;19.30;99.90
17442;DHT22;8838;50.144;8.176;2023-07-24T02:21:26;19.30;99.90
17442;DHT22;8838;50.144;8.176;2023-07-24T02:23:53;19.30;99.90
17442;DHT22;8838;50.144;8.176;2023-07-24T02:26:19;19.30;99.90
17442;DHT22;8838;50.144;8.176;2023-07-24T02:28:46;19.30;99.90
17442;DHT22;8838;50.144;8.176;2023-07-24T02:31:13;19.20;99.90
17442;DHT22;8838;50.144;8.176;2023-07-24T02:33:40;19.20;99.90
17442;DHT22;8838;50.144;8.176;2023-07-24T02:36:08;19.30;99.90
17442;DHT22;8838;50.144;8.176;2023-07-24T02:38:35;19.20;99.90
17442;DHT22;8838;50.144;8.176;2023-07-24T02:41:02;19.20;99.90
17442;DHT22;8838;50.144;8.176;2023-07-24T02:43:29;19.20;99.90
17442;DHT22;8838;50.144;8.176;2023-07-24T02:46:00;19.20;99.90
17442;DHT22;8838;50.144;8.176;2023-07-24T02:48:27;19.20;99.90
17442;DHT22;8838;50.144;8.176;2023-07-24T02:50:54;19.20;99.90
17442;DHT22;8838;50.144;8.176;2023-07-24T02:53:22;19.20;99.90
17442;DHT22;8838;50.144;8.176;2023-07-24T02:55:51;19.10;99.90
17442;DHT22;8838;50.144;8.176;2023-07-24T02:58:18;19.10;99.90
17442;DHT22;8838;50.144;8.176;2023-07-24T03:00:44;19.20;99.90
17442;DHT22;8838;50.144;8.176;2023-07-24T03:03:11;19.20;99.90
17442;DHT22;8838;50.144;8.176;2023-07-24T03:05:38;19.10;99.90
17442;DHT22;8838;50.144;8.176;2023-07-24T03:08:04;19.10;99.90
17442;DHT22;8838;50.144;8.176;2023-07-24T03:10:33;19.10;99.90
17442;DHT22;8838;50.144;8.176;2023-07-24T03:12:59;19.10;99.90
17442;DHT22;8838;50.144;8.176;2023-07-24T03:15:26;19.00;99.90
17442;DHT22;8838;50.144;8.176;2023-07-24T03:17:53;18.90;99.90
17442;DHT22;8838;50.144;8.176;2023-07-24T03:20:20;18.90;99.90
17442;DHT22;8838;50.144;8.176;2023-07-24T03:22:47;18.90;99.90
17442;DHT22;8838;50.144;8.176;2023-07-24T03:25:14;18.90;99.90
17442;DHT22;8838;50.144;8.176;2023-07-24T03:27:42;18.90;99.90
17442;DHT22;8838;50.144;8.176;2023-07-24T03:30:11;18.90;99.90
17442;DHT22;8838;50.144;8.176;2023-07-24T03:32:38;18.90;99.90
17442;DHT22;8838;50.144;8.176;2023-07-24T03:35:05;18.90;99.90
17442;DHT22;8838;50.144;8.176;2023-07-24T03:37:34;18.90;99.90
17442;DHT22;8838;50.144;8.176;2023-07-24T03:40:01;18.80;99.90
17442;DHT22;8838;50.144;8.176;2023-07-24T03:42:30;18.80;99.90
17442;DHT22;8838;50.144;8.176;2023-07-24T03:44:58;18.70;99.90
17442;DHT22;8838;50.144;8.176;2023-07-24T03:47:30;18.70;99.90
17442;DHT22;8838;50.144;8.176;2023-07-24T03:49:56;18.70;99.90
17442;DHT22;8838;50.144;8.176;2023-07-24T03:52:23;18.70;99.90
17442;DHT22;8838;50.144;8.176;2023-07-24T03:54:51;18.60;99.90
17442;DHT22;8838;50.144;8.176;2023-07-24T03:57:18;18.60;99.90
17442;DHT22;8838;50.144;8.176;2023-07-24T03:59:45;18.60;99.90
17442;DHT22;8838;50.144;8.176;2023-07-24T04:02:13;18.50;99.90
17442;DHT22;8838;50.144;8.176;2023-07-24T04:04:40;18.40;99.90
17442;DHT22;8838;50.144;8.176;2023-07-24T04:07:06;18.40;99.90
17442;DHT22;8838;50.144;8.176;2023-07-24T04:09:33;18.40;99.90
17442;DHT22;8838;50.144;8.176;2023-07-24T04:12:00;18.30;99.90
17442;DHT22;8838;50.144;8.176;2023-07-24T04:14:27;18.30;99.90
17442;DHT22;8838;50.144;8.176;2023-07-24T04:16:54;18.50;99.90
17442;DHT22;8838;50.144;8.176;2023-07-24T04:19:22;18.50;99.90
17442;DHT22;8838;50.144;8.176;2023-07-24T04:21:49;18.50;99.90
17442;DHT22;8838;50.144;8.176;2023-07-24T04:24:16;18.50;99.90
17442;DHT22;8838;50.144;8.176;2023-07-24T04:26:43;18.50;99.90
17442;DHT22;8838;50.144;8.176;2023-07-24T04:29:09;18.40;99.90
17442;DHT22;8838;50.144;8.176;2023-07-24T04:31:36;18.40;99.90
17442;DHT22;8838;50.144;8.176;2023-07-24T04:34:03;18.50;99.90
17442;DHT22;8838;50.144;8.176;2023-07-24T04:36:31;18.50;99.90
17442;DHT22;8838;50.144;8.176;2023-07-24T04:38:58;18.60;99.90
17442;DHT22;8838;50.144;8.176;2023-07-24T04:41:24;18.50;99.90
17442;DHT22;8838;50.144;8.176;2023-07-24T04:43:51;18.50;99.90
17442;DHT22;8838;50.144;8.176;2023-07-24T04:46:19;18.60;99.90
17442;DHT22;8838;50.144;8.176;2023-07-24T04:48:46;18.60;99.90
17442;DHT22;8838;50.144;8.176;2023-07-24T04:51:12;18.60;99.90
17442;DHT22;8838;50.144;8.176;2023-07-24T04:53:40;18.60;99.90
17442;DHT22;8838;50.144;8.176;2023-07-24T04:56:07;18.70;99.90
17442;DHT22;8838;50.144;8.176;2023-07-24T04:58:34;18.70;99.90
17442;DHT22;8838;50.144;8.176;2023-07-24T05:01:03;18.60;99.90
17442;DHT22;8838;50.144;8.176;2023-07-24T05:03:30;18.60;99.90
17442;DHT22;8838;50.144;8.176;2023-07-24T05:05:57;18.60;99.90
17442;DHT22;8838;50.144;8.176;2023-07-24T05:08:24;18.70;99.90
17442;DHT22;8838;50.144;8.176;2023-07-24T05:10:55;18.70;99.90
17442;DHT22;8838;50.144;8.176;2023-07-24T05:13:22;18.70;99.90
17442;DHT22;8838;50.144;8.176;2023-07-24T05:15:48;18.80;99.90
17442;DHT22;8838;50.144;8.176;2023-07-24T05:18:15;18.90;99.90
17442;DHT22;8838;50.144;8.176;2023-07-24T05:20:45;18.90;99.90
17442;DHT22;8838;50.144;8.176;2023-07-24T05:23:15;18.90;99.90
17442;DHT22;8838;50.144;8.176;2023-07-24T05:25:41;18.90;99.90
17442;DHT22;8838;50.144;8.176;2023-07-24T05:28:10;18.90;99.90
17442;DHT22;8838;50.144;8.176;2023-07-24T05:30:36;18.90;99.90
17442;DHT22;8838;50.144;8.176;2023-07-24T05:33:03;19.00;99.90
17442;DHT22;8838;50.144;8.176;2023-07-24T05:35:30;19.00;99.90
17442;DHT22;8838;50.144;8.176;2023-07-24T05:37:57;19.10;99.90
17442;DHT22;8838;50.144;8.176;2023-07-24T05:40:24;19.20;99.90
17442;DHT22;8838;50.144;8.176;2023-07-24T05:42:50;19.30;99.90
17442;DHT22;8838;50.144;8.176;2023-07-24T05:45:18;19.30;99.90
17442;DHT22;8838;50.144;8.176;2023-07-24T05:47:45;19.30;99.90
17442;DHT22;8838;50.144;8.176;2023-07-24T05:50:12;19.30;99.90
17442;DHT22;8838;50.144;8.176;2023-07-24T05:52:39;19.40;99.90
17442;DHT22;8838;50.144;8.176;2023-07-24T05:55:07;19.40;99.90
17442;DHT22;8838;50.144;8.176;2023-07-24T05:57:34;19.40;99.90
17442;DHT22;8838;50.144;8.176;2023-07-24T06:00:01;19.50;99.90
17442;DHT22;8838;50.144;8.176;2023-07-24T06:02:29;19.60;99.90
17442;DHT22;8838;50.144;8.176;2023-07-24T06:04:56;19.60;99.90
17442;DHT22;8838;50.144;8.176;2023-07-24T06:07:23;19.60;99.90
17442;DHT22;8838;50.144;8.176;2023-07-24T06:09:50;19.60;99.90
17442;DHT22;8838;50.144;8.176;2023-07-24T06:12:16;19.60;99.90
17442;DHT22;8838;50.144;8.176;2023-07-24T06:14:43;19.60;99.90
17442;DHT22;8838;50.144;8.176;2023-07-24T06:17:10;19.60;99.90
17442;DHT22;8838;50.144;8.176;2023-07-24T06:19:41;19.60;99.90
17442;DHT22;8838;50.144;8.176;2023-07-24T06:22:08;19.70;99.90
17442;DHT22;8838;50.144;8.176;2023-07-24T06:24:35;19.60;99.90
17442;DHT22;8838;50.144;8.176;2023-07-24T06:27:02;19.70;99.90
17442;DHT22;8838;50.144;8.176;2023-07-24T06:29:28;19.70;99.90
17442;DHT22;8838;50.144;8.176;2023-07-24T06:31:55;19.80;99.90
17442;DHT22;8838;50.144;8.176;2023-07-24T06:34:22;19.80;99.90
17442;DHT22;8838;50.144;8.176;2023-07-24T06:36:53;19.90;99.90
17442;DHT22;8838;50.144;8.176;2023-07-24T06:39:19;19.90;99.90
17442;DHT22;8838;50.144;8.176;2023-07-24T06:41:47;20.00;99.90
17442;DHT22;8838;50.144;8.176;2023-07-24T06:44:13;20.10;99.90
17442;DHT22;8838;50.144;8.176;2023-07-24T06:46:40;20.10;99.90
17442;DHT22;8838;50.144;8.176;2023-07-24T06:49:07;20.20;99.90
17442;DHT22;8838;50.144;8.176;2023-07-24T06:51:34;20.20;99.90
17442;DHT22;8838;50.144;8.176;2023-07-24T06:54:02;20.10;99.90
17442;DHT22;8838;50.144;8.176;2023-07-24T06:56:29;20.20;99.90
17442;DHT22;8838;50.144;8.176;2023-07-24T06:58:55;20.20;99.90
17442;DHT22;8838;50.144;8.176;2023-07-24T07:01:22;20.30;99.90
17442;DHT22;8838;50.144;8.176;2023-07-24T07:03:49;20.40;99.90
17442;DHT22;8838;50.144;8.176;2023-07-24T07:06:16;20.50;99.90
17442;DHT22;8838;50.144;8.176;2023-07-24T07:08:45;20.50;99.90
17442;DHT22;8838;50.144;8.176;2023-07-24T07:11:14;20.50;99.90
17442;DHT22;8838;50.144;8.176;2023-07-24T07:13:40;20.60;99.90
17442;DHT22;8838;50.144;8.176;2023-07-24T07:16:07;20.60;99.90
17442;DHT22;8838;50.144;8.176;2023-07-24T07:18:34;20.70;99.90
17442;DHT22;8838;50.144;8.176;2023-07-24T07:21:01;20.70;99.90
17442;DHT22;8838;50.144;8.176;2023-07-24T07:23:27;20.70;99.90
17442;DHT22;8838;50.144;8.176;2023-07-24T07:25:54;20.70;99.90
17442;DHT22;8838;50.144;8.176;2023-07-24T07:28:22;20.70;99.90
17442;DHT22;8838;50.144;8.176;2023-07-24T07:30:49;20.70;99.90
17442;DHT22;8838;50.144;8.176;2023-07-24T07:33:16;20.70;99.90
17442;DHT22;8838;50.144;8.176;2023-07-24T07:35:43;20.70;99.90
17442;DHT22;8838;50.144;8.176;2023-07-24T07:38:09;20.70;99.90
17442;DHT22;8838;50.144;8.176;2023-07-24T07:40:37;20.70;99.90
17442;DHT22;8838;50.144;8.176;2023-07-24T07:43:04;20.70;99.90
17442;DHT22;8838;50.144;8.176;2023-07-24T07:45:33;20.60;99.90
17442;DHT22;8838;50.144;8.176;2023-07-24T07:48:00;20.50;99.90
17442;DHT22;8838;50.144;8.176;2023-07-24T07:50:28;20.40;99.90
17442;DHT22;8838;50.144;8.176;2023-07-24T07:52:55;20.30;99.90
17442;DHT22;8838;50.144;8.176;2023-07-24T07:55:22;20.30;99.90
17442;DHT22;8838;50.144;8.176;2023-07-24T07:57:49;20.30;99.90
17442;DHT22;8838;50.144;8.176;2023-07-24T08:00:16;20.20;99.90
17442;DHT22;8838;50.144;8.176;2023-07-24T08:02:44;20.20;99.90
17442;DHT22;8838;50.144;8.176;2023-07-24T08:05:11;20.20;99.90
17442;DHT22;8838;50.144;8.176;2023-07-24T08:07:38;20.00;99.90
17442;DHT22;8838;50.144;8.176;2023-07-24T08:10:07;20.00;99.90
17442;DHT22;8838;50.144;8.176;2023-07-24T08:12:34;20.00;99.90
17442;DHT22;8838;50.144;8.176;2023-07-24T08:15:04;20.00;99.90
17442;DHT22;8838;50.144;8.176;2023-07-24T08:17:31;20.10;99.90
17442;DHT22;8838;50.144;8.176;2023-07-24T08:19:59;20.20;99.90
17442;DHT22;8838;50.144;8.176;2023-07-24T08:22:26;20.30;99.90
17442;DHT22;8838;50.144;8.176;2023-07-24T08:24:52;20.40;99.90
17442;DHT22;8838;50.144;8.176;2023-07-24T08:27:19;20.70;99.90
17442;DHT22;8838;50.144;8.176;2023-07-24T08:29:46;21.20;99.90
17442;DHT22;8838;50.144;8.176;2023-07-24T08:32:13;21.30;99.90
17442;DHT22;8838;50.144;8.176;2023-07-24T08:34:39;21.40;99.90
17442;DHT22;8838;50.144;8.176;2023-07-24T08:37:08;21.50;99.90
17442;DHT22;8838;50.144;8.176;2023-07-24T08:39:34;21.50;99.90
17442;DHT22;8838;50.144;8.176;2023-07-24T08:42:08;21.90;99.90
17442;DHT22;8838;50.144;8.176;2023-07-24T08:44:36;22.30;99.90
17442;DHT22;8838;50.144;8.176;2023-07-24T08:47:04;22.40;99.90
17442;DHT22;8838;50.144;8.176;2023-07-24T08:49:32;22.50;99.90
17442;DHT22;8838;50.144;8.176;2023-07-24T08:52:01;22.90;99.90
17442;DHT22;8838;50.144;8.176;2023-07-24T08:54:30;23.50;99.90
17442;DHT22;8838;50.144;8.176;2023-07-24T08:56:58;23.90;99.90
17442;DHT22;8838;50.144;8.176;2023-07-24T08:59:27;24.20;99.90
17442;DHT22;8838;50.144;8.176;2023-07-24T09:01:55;23.80;99.90
17442;DHT22;8838;50.144;8.176;2023-07-24T09:04:22;23.30;99.90
17442;DHT22;8838;50.144;8.176;2023-07-24T09:06:50;22.70;99.90
17442;DHT22;8838;50.144;8.176;2023-07-24T09:09:17;22.50;99.90
17442;DHT22;8838;50.144;8.176;2023-07-24T09:11:49;22.20;99.90
17442;DHT22;8838;50.144;8.176;2023-07-24T09:14:26;21.80;99.90
17442;DHT22;8838;50.144;8.176;2023-07-24T09:17:03;21.60;99.90
17442;DHT22;8838;50.144;8.176;2023-07-24T09:19:30;21.60;99.90
17442;DHT22;8838;50.144;8.176;2023-07-24T09:22:07;21.60;99.90
17442;DHT22;8838;50.144;8.176;2023-07-24T09:24:35;21.70;99.90
17442;DHT22;8838;50.144;8.176;2023-07-24T09:27:05;21.70;99.90
17442;DHT22;8838;50.144;8.176;2023-07-24T09:29:33;21.70;99.90
17442;DHT22;8838;50.144;8.176;2023-07-24T09:32:00;21.80;99.90
17442;DHT22;8838;50.144;8.176;2023-07-24T09:34:27;21.80;99.90
17442;DHT22;8838;50.144;8.176;2023-07-24T09:36:54;21.90;99.90
17442;DHT22;8838;50.144;8.176;2023-07-24T09:39:23;22.30;99.90
17442;DHT22;8838;50.144;8.176;2023-07-24T09:41:50;22.50;99.90
17442;DHT22;8838;50.144;8.176;2023-07-24T09:44:19;22.60;99.90
17442;DHT22;8838;50.144;8.176;2023-07-24T09:46:46;22.80;99.90
17442;DHT22;8838;50.144;8.176;2023-07-24T09:49:13;23.40;99.90
17442;DHT22;8838;50.144;8.176;2023-07-24T09:51:43;24.20;99.90
17442;DHT22;8838;50.144;8.176;2023-07-24T09:54:17;24.20;99.90
17442;DHT22;8838;50.144;8.176;2023-07-24T09:56:47;24.10;99.90
17442;DHT22;8838;50.144;8.176;2023-07-24T09:59:16;24.00;99.90
17442;DHT22;8838;50.144;8.176;2023-07-24T10:01:46;23.90;99.90
17442;DHT22;8838;50.144;8.176;2023-07-24T10:04:14;23.60;99.90
17442;DHT22;8838;50.144;8.176;2023-07-24T10:06:42;23.40;99.90
17442;DHT22;8838;50.144;8.176;2023-07-24T10:09:10;23.20;99.90
17442;DHT22;8838;50.144;8.176;2023-07-24T10:11:37;23.10;99.90
17442;DHT22;8838;50.144;8.176;2023-07-24T10:14:04;23.20;99.90
17442;DHT22;8838;50.144;8.176;2023-07-24T10:16:32;23.80;99.90
17442;DHT22;8838;50.144;8.176;2023-07-24T10:19:01;24.80;99.90
17442;DHT22;8838;50.144;8.176;2023-07-24T10:21:28;25.80;99.90
17442;DHT22;8838;50.144;8.176;2023-07-24T10:23:54;26.10;99.90
17442;DHT22;8838;50.144;8.176;2023-07-24T10:26:26;26.00;99.90
17442;DHT22;8838;50.144;8.176;2023-07-24T10:28:53;25.90;99.90
17442;DHT22;8838;50.144;8.176;2023-07-24T10:31:24;25.30;99.90
17442;DHT22;8838;50.144;8.176;2023-07-24T10:33:52;25.20;99.90
17442;DHT22;8838;50.144;8.176;2023-07-24T10:36:22;25.10;99.90
17442;DHT22;8838;50.144;8.176;2023-07-24T10:38:53;25.00;99.90
17442;DHT22;8838;50.144;8.176;2023-07-24T10:41:20;25.20;99.90
17442;DHT22;8838;50.144;8.176;2023-07-24T10:43:48;25.00;99.90
17442;DHT22;8838;50.144;8.176;2023-07-24T10:46:17;25.00;99.90
17442;DHT22;8838;50.144;8.176;2023-07-24T10:48:45;25.00;99.90
17442;DHT22;8838;50.144;8.176;2023-07-24T10:51:12;25.20;99.90
17442;DHT22;8838;50.144;8.176;2023-07-24T10:53:46;25.40;99.90
17442;DHT22;8838;50.144;8.176;2023-07-24T10:56:13;24.90;99.90
17442;DHT22;8838;50.144;8.176;2023-07-24T10:58:40;25.10;99.90
17442;DHT22;8838;50.144;8.176;2023-07-24T11:01:08;25.10;99.90
17442;DHT22;8838;50.144;8.176;2023-07-24T11:03:36;25.00;99.90
17442;DHT22;8838;50.144;8.176;2023-07-24T11:06:04;25.10;99.90
17442;DHT22;8838;50.144;8.176;2023-07-24T11:08:30;25.20;99.90
17442;DHT22;8838;50.144;8.176;2023-07-24T11:11:00;24.90;99.90
17442;DHT22;8838;50.144;8.176;2023-07-24T11:13:28;24.60;99.90
17442;DHT22;8838;50.144;8.176;2023-07-24T11:15:55;24.40;99.90
17442;DHT22;8838;50.144;8.176;2023-07-24T11:18:22;24.30;99.90
17442;DHT22;8838;50.144;8.176;2023-07-24T11:20:54;24.30;99.90
17442;DHT22;8838;50.144;8.176;2023-07-24T11:23:21;24.30;99.90
17442;DHT22;8838;50.144;8.176;2023-07-24T11:25:50;24.30;99.90
17442;DHT22;8838;50.144;8.176;2023-07-24T11:28:19;24.30;99.90
17442;DHT22;8838;50.144;8.176;2023-07-24T11:30:46;24.40;99.90
17442;DHT22;8838;50.144;8.176;2023-07-24T11:33:15;25.00;99.90
17442;DHT22;8838;50.144;8.176;2023-07-24T11:35:42;25.30;99.90
17442;DHT22;8838;50.144;8.176;2023-07-24T11:38:10;25.60;99.90
17442;DHT22;8838;50.144;8.176;2023-07-24T11:40:38;26.00;99.90
17442;DHT22;8838;50.144;8.176;2023-07-24T11:43:05;26.00;99.90
17442;DHT22;8838;50.144;8.176;2023-07-24T11:45:43;26.30;99.90
17442;DHT22;8838;50.144;8.176;2023-07-24T11:48:11;26.70;99.90
17442;DHT22;8838;50.144;8.176;2023-07-24T11:50:42;27.50;99.90
17442;DHT22;8838;50.144;8.176;2023-07-24T11:53:20;28.00;99.90
17442;DHT22;8838;50.144;8.176;2023-07-24T11:55:49;27.30;99.90
17442;DHT22;8838;50.144;8.176;2023-07-24T11:58:17;26.80;99.90
17442;DHT22;8838;50.144;8.176;2023-07-24T12:00:47;26.40;99.90
17442;DHT22;8838;50.144;8.176;2023-07-24T12:03:14;25.80;99.90
17442;DHT22;8838;50.144;8.176;2023-07-24T12:05:41;25.60;99.90
17442;DHT22;8838;50.144;8.176;2023-07-24T12:08:09;25.90;99.90
17442;DHT22;8838;50.144;8.176;2023-07-24T12:10:37;26.10;99.90
17442;DHT22;8838;50.144;8.176;2023-07-24T12:13:04;26.10;99.90
17442;DHT22;8838;50.144;8.176;2023-07-24T12:15:33;26.50;99.90
17442;DHT22;8838;50.144;8.176;2023-07-24T12:18:02;26.70;99.90
17442;DHT22;8838;50.144;8.176;2023-07-24T12:20:29;26.70;99.90
17442;DHT22;8838;50.144;8.176;2023-07-24T12:22:57;26.40;99.90
17442;DHT22;8838;50.144;8.176;2023-07-24T12:25:24;26.20;99.90
17442;DHT22;8838;50.144;8.176;2023-07-24T12:27:51;26.40;99.90
17442;DHT22;8838;50.144;8.176;2023-07-24T12:30:18;26.00;99.90
17442;DHT22;8838;50.144;8.176;2023-07-24T12:32:45;25.50;99.90
17442;DHT22;8838;50.144;8.176;2023-07-24T12:35:13;24.90;99.90
17442;DHT22;8838;50.144;8.176;2023-07-24T12:37:40;24.70;99.90
17442;DHT22;8838;50.144;8.176;2023-07-24T12:40:08;24.50;99.90
17442;DHT22;8838;50.144;8.176;2023-07-24T12:42:35;24.20;99.90
17442;DHT22;8838;50.144;8.176;2023-07-24T12:45:02;24.40;99.90
17442;DHT22;8838;50.144;8.176;2023-07-24T12:47:29;24.50;99.90
17442;DHT22;8838;50.144;8.176;2023-07-24T12:49:56;24.30;99.90
17442;DHT22;8838;50.144;8.176;2023-07-24T12:52:25;24.60;99.90
17442;DHT22;8838;50.144;8.176;2023-07-24T12:54:53;25.00;99.90
17442;DHT22;8838;50.144;8.176;2023-07-24T12:57:20;25.20;99.90
17442;DHT22;8838;50.144;8.176;2023-07-24T12:59:47;25.20;99.90
17442;DHT22;8838;50.144;8.176;2023-07-24T13:02:14;25.20;99.90
17442;DHT22;8838;50.144;8.176;2023-07-24T13:04:42;25.20;99.90
17442;DHT22;8838;50.144;8.176;2023-07-24T13:07:09;25.40;99.90
17442;DHT22;8838;50.144;8.176;2023-07-24T13:09:37;25.40;99.90
17442;DHT22;8838;50.144;8.176;2023-07-24T13:12:04;25.40;99.90
17442;DHT22;8838;50.144;8.176;2023-07-24T13:14:31;25.60;99.90
17442;DHT22;8838;50.144;8.176;2023-07-24T13:16:58;25.80;99.90
17442;DHT22;8838;50.144;8.176;2023-07-24T13:19:25;25.80;99.90
17442;DHT22;8838;50.144;8.176;2023-07-24T13:21:51;26.00;99.90
17442;DHT22;8838;50.144;8.176;2023-07-24T13:24:18;25.80;99.90
17442;DHT22;8838;50.144;8.176;2023-07-24T13:26:47;25.30;99.90
17442;DHT22;8838;50.144;8.176;2023-07-24T13:29:13;25.20;99.90
17442;DHT22;8838;50.144;8.176;2023-07-24T13:31:40;25.20;99.90
17442;DHT22;8838;50.144;8.176;2023-07-24T13:34:07;25.00;99.90
17442;DHT22;8838;50.144;8.176;2023-07-24T13:36:34;24.70;99.90
17442;DHT22;8838;50.144;8.176;2023-07-24T13:39:01;24.30;99.90
17442;DHT22;8838;50.144;8.176;2023-07-24T13:41:27;24.00;99.90
17442;DHT22;8838;50.144;8.176;2023-07-24T13:43:55;23.80;99.90
17442;DHT22;8838;50.144;8.176;2023-07-24T13:46:22;23.70;99.90
17442;DHT22;8838;50.144;8.176;2023-07-24T13:48:49;23.50;99.90
17442;DHT22;8838;50.144;8.176;2023-07-24T13:51:16;23.10;99.90
17442;DHT22;8838;50.144;8.176;2023-07-24T13:53:42;22.80;99.90
17442;DHT22;8838;50.144;8.176;2023-07-24T13:56:11;22.40;99.90
17442;DHT22;8838;50.144;8.176;2023-07-24T13:58:39;22.20;99.90
17442;DHT22;8838;50.144;8.176;2023-07-24T14:01:07;22.30;99.90
17442;DHT22;8838;50.144;8.176;2023-07-24T14:03:34;22.50;99.90
17442;DHT22;8838;50.144;8.176;2023-07-24T14:06:01;22.60;99.90
17442;DHT22;8838;50.144;8.176;2023-07-24T14:08:28;22.50;99.90
17442;DHT22;8838;50.144;8.176;2023-07-24T14:10:55;22.40;99.90
17442;DHT22;8838;50.144;8.176;2023-07-24T14:13:21;22.70;99.90
17442;DHT22;8838;50.144;8.176;2023-07-24T14:15:48;22.60;99.90
17442;DHT22;8838;50.144;8.176;2023-07-24T14:18:16;22.60;99.90
17442;DHT22;8838;50.144;8.176;2023-07-24T14:20:43;22.70;99.90
17442;DHT22;8838;50.144;8.176;2023-07-24T14:23:10;22.70;99.90
17442;DHT22;8838;50.144;8.176;2023-07-24T14:25:36;22.90;99.90
17442;DHT22;8838;50.144;8.176;2023-07-24T14:28:03;23.20;99.90
17442;DHT22;8838;50.144;8.176;2023-07-24T14:30:30;23.10;99.90
17442;DHT22;8838;50.144;8.176;2023-07-24T14:32:57;23.30;99.90
17442;DHT22;8838;50.144;8.176;2023-07-24T14:35:25;23.20;99.90
17442;DHT22;8838;50.144;8.176;2023-07-24T14:37:52;23.40;99.90
17442;DHT22;8838;50.144;8.176;2023-07-24T14:40:19;23.40;99.90
17442;DHT22;8838;50.144;8.176;2023-07-24T14:42:47;23.40;99.90
17442;DHT22;8838;50.144;8.176;2023-07-24T14:45:14;23.60;99.90
17442;DHT22;8838;50.144;8.176;2023-07-24T14:47:41;23.90;99.90
17442;DHT22;8838;50.144;8.176;2023-07-24T14:50:08;24.00;99.90
17442;DHT22;8838;50.144;8.176;2023-07-24T14:52:37;24.20;99.90
17442;DHT22;8838;50.144;8.176;2023-07-24T14:55:04;24.30;99.90
17442;DHT22;8838;50.144;8.176;2023-07-24T14:57:31;24.40;99.90
17442;DHT22;8838;50.144;8.176;2023-07-24T14:59:58;24.10;99.90
17442;DHT22;8838;50.144;8.176;2023-07-24T15:02:25;24.00;99.90
17442;DHT22;8838;50.144;8.176;2023-07-24T15:04:51;24.00;99.90
17442;DHT22;8838;50.144;8.176;2023-07-24T15:07:18;24.00;99.90
17442;DHT22;8838;50.144;8.176;2023-07-24T15:09:46;23.90;99.90
17442;DHT22;8838;50.144;8.176;2023-07-24T15:12:13;24.00;99.90
17442;DHT22;8838;50.144;8.176;2023-07-24T15:14:40;24.00;99.90
17442;DHT22;8838;50.144;8.176;2023-07-24T15:17:07;24.10;99.90
17442;DHT22;8838;50.144;8.176;2023-07-24T15:19:33;24.10;99.90
17442;DHT22;8838;50.144;8.176;2023-07-24T15:22:00;24.10;99.90
17442;DHT22;8838;50.144;8.176;2023-07-24T15:24:27;24.10;99.90
17442;DHT22;8838;50.144;8.176;2023-07-24T15:26:55;24.20;99.90
17442;DHT22;8838;50.144;8.176;2023-07-24T15:29:22;24.30;99.90
17442;DHT22;8838;50.144;8.176;2023-07-24T15:31:48;24.10;99.90
17442;DHT22;8838;50.144;8.176;2023-07-24T15:34:15;24.10;99.90
17442;DHT22;8838;50.144;8.176;2023-07-24T15:36:42;24.20;99.90
17442;DHT22;8838;50.144;8.176;2023-07-24T15:39:09;24.20;99.90
17442;DHT22;8838;50.144;8.176;2023-07-24T15:41:36;24.60;99.90
17442;DHT22;8838;50.144;8.176;2023-07-24T15:44:04;24.70;99.90
17442;DHT22;8838;50.144;8.176;2023-07-24T15:46:32;24.60;99.90